Racecast

Mackenzie Vaughan

Virginia Beach Flames (VA) · 6 · Compare head to head

Athlete rating
Races 97
Seasons 3 2024 — 2026
Speed rating — all races

Track & Field

TF speed rating

2026 TF

Virginia Beach Flames (VA) · Grade 6

Date Meet Event Result Place Rating Difficulty PR/SR Flags
2026-06-13 AAU Virginia District Qualifier - South discus 35' 4" -0.033
2026-06-13 AAU Virginia District Qualifier - South 400m 1:26.58 21st · 4th on team -0.033
2026-06-13 AAU Virginia District Qualifier - South 200m 31.72 21st · 4th on team -0.033 ★PR SR
2026-05-30 Va Beach Flames Invite discus 36' 5" -0.023
2026-05-30 Va Beach Flames Invite 200m 33.38 28th · 7th on team -0.023
2026-05-30 Va Beach Flames Invite 400m 1:35.29 46th · 11th on team -0.023
2026-05-16 2026 Technique Relays javelin 22' 6" -0.035
2026-05-16 2026 Technique Relays 400m 1:34.85 29th · 9th on team -0.035
2026-05-16 2026 Technique Relays 100m 16.13 26th · 7th on team -0.035 SR
2026-05-09 VA "Legends" T & F Youth Invite discus 7.97m -0.033
2026-05-09 VA "Legends" T & F Youth Invite javelin 9.11m -0.033
2026-05-09 VA "Legends" T & F Youth Invite 200m 34.16 44th · 7th on team -0.033
2026-04-26 Virginia Pride Spring Kick-Off javelin 23-01 -0.029
2026-04-26 Virginia Pride Spring Kick-Off discus 25-02 -0.029
2026-04-26 Virginia Pride Spring Kick-Off 400m 1:26.31 52nd · 9th on team -0.029 SR
2026-04-26 Virginia Pride Spring Kick-Off 200m 35.83 58th · 9th on team -0.029
2026-03-06 AAU Indoor National Championship 60m 9.82 65th · 4th on team -0.036
2026-03-06 AAU Indoor National Championship 200m 34.29 79th · 6th on team -0.036
2026-02-28 BWSP Queens and Kings Championships 55m 8.84 22nd · 8th on team -0.024
2026-02-28 BWSP Queens and Kings Championships 400m 1:26.9 26th · 9th on team -0.024
2026-02-28 BWSP Queens and Kings Championships 200m 33.73 28th · 9th on team -0.024
2026-02-22 3rd Annual HRH Winter Storm Classic 200m 32.83 34th · 9th on team -0.024 PR SR
2026-02-22 3rd Annual HRH Winter Storm Classic 55m 8.93 34th · 7th on team -0.024
2026-01-31 BWSP Queens and Kings - Meet 3 55m 9 26th · 10th on team -0.024
2026-01-31 BWSP Queens and Kings - Meet 3 200m 32.98 20th · 7th on team -0.024 PR SR
2026-01-31 BWSP Queens and Kings - Meet 3 400m 1:29.01 23rd · 9th on team -0.024
2026-01-25 Virginia Beach Flames Invitational 60m 9.8 14th · 11th on team -0.036 SR
2026-01-25 Virginia Beach Flames Invitational 400m 1:35.99 10th · 8th on team -0.036
2026-01-25 Virginia Beach Flames Invitational 200m 35.1 7th · 5th on team -0.036
2026-01-25 Virginia Beach Flames Invitational 60m 9.77 12th · 10th on team -0.036 ★PR SR
2026-01-17 BWSP Queens and Kings - Meet 2 400m 1:30.49 27th · 9th on team -0.024
2026-01-17 BWSP Queens and Kings - Meet 2 55m 8.98 26th · 13th on team -0.024
2026-01-17 BWSP Queens and Kings - Meet 2 200m 33.01 16th · 6th on team -0.024 PR SR
2026-01-03 BWSP Queens and Kings - Meet 1 55m 8.84 20th · 3rd on team -0.024
2026-01-03 BWSP Queens and Kings - Meet 1 400m 1:26.82 22nd · 4th on team -0.024 SR
2026-01-03 BWSP Queens and Kings - Meet 1 200m 33.93 20th · 4th on team -0.024
2025-12-20 2025 Howard White Holiday Track Classic 55m 8.84 20th · 10th on team -0.024 PR SR
2025-12-20 2025 Howard White Holiday Track Classic 200m 33.77 20th · 7th on team -0.024 PR SR
2025-12-20 2025 Howard White Holiday Track Classic 400m 1:29.11 20th · 4th on team -0.024 SR

2025 TF

Virginia Beach Flames (VA) · Grade 5

Date Meet Event Result Place Rating Difficulty PR/SR Flags
2025-07-05 F.I.A. Freedom Invitational javelin 10.41m -0.021
2025-07-05 F.I.A. Freedom Invitational 400m 1:31.8 12th · 3rd on team -0.021
2025-07-05 F.I.A. Freedom Invitational 200m 34.11 13th · 5th on team -0.021
2025-06-25 AAU Track & Field Region 5 Qualifier javelin 30-09 -0.034
2025-06-14 AAU Virginia District Qualifier (Southern) javelin DNS -0.041
2025-06-14 AAU Virginia District Qualifier (Southern) 200m 34.01 26th · 3rd on team -0.041
2025-06-14 AAU Virginia District Qualifier (Southern) 400m 1:28.87 23rd · 1st on team -0.041
2025-05-31 Va Beach Flames Invite javelin 27' 10" -0.023
2025-05-31 Va Beach Flames Invite 200m 34 46th · 8th on team -0.023
2025-05-31 Va Beach Flames Invite 400m 1:32.47 52nd · 6th on team -0.023
2025-05-25 HR Hurricanes CAT 5 Invite javelin 25' 10" -0.035
2025-05-25 HR Hurricanes CAT 5 Invite 200m 35.62 19th · 6th on team -0.035
2025-05-25 HR Hurricanes CAT 5 Invite 400m 1:30.57 19th · 5th on team -0.035
2025-05-10 Legends Invitational hosted by Eastend Lightning javelin 22-05 -0.030
2025-05-10 Legends Invitational hosted by Eastend Lightning 400m 1:28.66 42nd · 3rd on team -0.030
2025-05-10 Legends Invitational hosted by Eastend Lightning 200m 35.05 40th · 4th on team -0.030
2025-05-04 Queen Harrison Youth Invite 200m 35.81 25th · 3rd on team -0.033
2025-05-04 Queen Harrison Youth Invite 400m 1:31.28 27th · 2nd on team -0.033
2025-05-04 Queen Harrison Youth Invite 100m 16.18 21st · 4th on team -0.033
2025-04-27 TRACK 757 Classic javelin 7.32m -0.029
2025-04-27 TRACK 757 Classic 200m 35.38 18th · 4th on team -0.029
2025-04-27 TRACK 757 Classic 100m 15.62 26th · 5th on team -0.029 ★PR SR
2025-03-07 AAU Indoor National Championships 400m 1:31.55 42nd · 1st on team -0.036
2025-03-07 AAU Indoor National Championships 60m 9.79 52nd · 2nd on team -0.036 PR SR
2025-03-07 AAU Indoor National Championships 200m 34.4 61st · 1st on team -0.036
2025-02-22 BWSP Queens and Kings Championships 55m 9.29 29th · 6th on team -0.014
2025-02-22 BWSP Queens and Kings Championships 200m 35.79 25th · 6th on team -0.014
2025-02-22 BWSP Queens and Kings Championships 400m 1:26.53 24th · 4th on team -0.014
2025-02-16 HRH Winter Storm Classic 55m 9.25 20th · 7th on team -0.014
2025-02-16 HRH Winter Storm Classic 200m 36.13 24th · 4th on team -0.014
2025-02-16 HRH Winter Storm Classic 400m 1:31.76 25th · 5th on team -0.014
2025-02-01 BWSP Queens and Kings - Meet 3 55m 9.48 27th · 4th on team -0.014
2025-02-01 BWSP Queens and Kings - Meet 3 200m 38.86 25th · 5th on team -0.014
2025-02-01 BWSP Queens and Kings - Meet 3 400m 1:44.72 18th · 3rd on team -0.014
2025-01-18 BWSP Queens and Kings - Meet 2 200m 34 14th · 3rd on team -0.014 PR SR
2025-01-18 BWSP Queens and Kings - Meet 2 55m 9.03 20th · 5th on team -0.014 PR SR
2025-01-18 BWSP Queens and Kings - Meet 2 400m 1:25.17 15th · 3rd on team -0.014 ★PR SR
2025-01-04 BWSP Queens and Kings - Meet 1 55m 9.38 30th · 7th on team -0.024 PR SR
2025-01-04 BWSP Queens and Kings - Meet 1 400m 1:29.48 25th · 5th on team -0.024 PR SR
2025-01-04 BWSP Queens and Kings - Meet 1 200m 36.42 33rd · 7th on team -0.024
2024-12-08 Coach Miami Presents the Virginia Beast Invitational 60m 9.98 35th · 7th on team -0.036 PR SR
2024-12-08 Coach Miami Presents the Virginia Beast Invitational 400m 1:30.77 19th · 5th on team -0.036 PR SR
2024-12-08 Coach Miami Presents the Virginia Beast Invitational 200m 34.05 24th · 7th on team -0.036 PR SR

2024 TF

Virginia Beach Flames (VA) · Grade 4

Date Meet Event Result Place Rating Difficulty PR/SR Flags
2024-07-13 Cannonball Cooper Invite javelin 22-11 -0.024
2024-07-13 Cannonball Cooper Invite 200m 35.88 25th · 4th on team -0.024 PR SR
2024-07-13 Cannonball Cooper Invite 100m 16.79 19th · 4th on team -0.024
2024-06-08 AAU Virginia South District Qualifier javelin 24-00 -0.029
2024-06-08 AAU Virginia South District Qualifier 200m 36.28 18th · 1st on team -0.029
2024-06-08 AAU Virginia South District Qualifier 100m 16.4 15th · 1st on team -0.029 PR SR
2024-06-01 VB Flames Invitational javelin 22-04 -0.023
2024-06-01 VB Flames Invitational 100m 17.14 40th · 7th on team -0.023 PR SR
2024-06-01 VB Flames Invitational 200m 36.09 36th · 7th on team -0.023 PR SR
2024-05-11 2024 EE Lightning "Legends" Invite javelin 20-05 -0.043
2024-05-11 2024 EE Lightning "Legends" Invite 100m 17.39 35th · 6th on team -0.043
2024-05-11 2024 EE Lightning "Legends" Invite 200m 39.47 45th · 8th on team -0.043 PR SR
2024-05-05 Queen Harrison Invite javelin 17-03 -0.033
2024-05-05 Queen Harrison Invite 200m 39.98 19th · 7th on team -0.033 PR SR
2024-05-05 Queen Harrison Invite 100m 17.22 16th · 6th on team -0.033 PR SR